sensor_id;sensor_type;location;lat;lon;timestamp;P1;durP1;ratioP1;P2;durP2;ratioP2
74259;SDS011;62630;55.874;37.516;2023-03-20T00:00:43;7.38;;;3.88;;
74259;SDS011;62630;55.874;37.516;2023-03-20T00:03:11;6.90;;;3.58;;
74259;SDS011;62630;55.874;37.516;2023-03-20T00:05:37;6.28;;;3.38;;
74259;SDS011;62630;55.874;37.516;2023-03-20T00:08:03;7.32;;;3.72;;
74259;SDS011;62630;55.874;37.516;2023-03-20T00:10:31;6.22;;;4.18;;
74259;SDS011;62630;55.874;37.516;2023-03-20T00:13:01;9.07;;;4.07;;
74259;SDS011;62630;55.874;37.516;2023-03-20T00:17:59;10.55;;;4.43;;
74259;SDS011;62630;55.874;37.516;2023-03-20T00:20:24;9.25;;;3.78;;
74259;SDS011;62630;55.874;37.516;2023-03-20T00:22:50;6.78;;;4.03;;
74259;SDS011;62630;55.874;37.516;2023-03-20T00:25:21;7.20;;;2.97;;
74259;SDS011;62630;55.874;37.516;2023-03-20T00:27:49;7.30;;;3.35;;
74259;SDS011;62630;55.874;37.516;2023-03-20T00:30:17;11.90;;;4.32;;
74259;SDS011;62630;55.874;37.516;2023-03-20T00:32:46;9.15;;;4.10;;
74259;SDS011;62630;55.874;37.516;2023-03-20T00:35:21;6.35;;;4.30;;
74259;SDS011;62630;55.874;37.516;2023-03-20T00:37:48;8.98;;;4.22;;
74259;SDS011;62630;55.874;37.516;2023-03-20T00:40:15;10.68;;;4.40;;
74259;SDS011;62630;55.874;37.516;2023-03-20T00:42:41;10.68;;;4.43;;
74259;SDS011;62630;55.874;37.516;2023-03-20T00:45:14;9.45;;;4.90;;
74259;SDS011;62630;55.874;37.516;2023-03-20T00:47:43;7.03;;;3.70;;
74259;SDS011;62630;55.874;37.516;2023-03-20T00:50:22;9.27;;;4.50;;
74259;SDS011;62630;55.874;37.516;2023-03-20T00:52:51;7.57;;;4.07;;
74259;SDS011;62630;55.874;37.516;2023-03-20T00:55:17;8.52;;;4.00;;
74259;SDS011;62630;55.874;37.516;2023-03-20T00:57:56;6.65;;;4.28;;
74259;SDS011;62630;55.874;37.516;2023-03-20T01:00:41;9.52;;;4.47;;
74259;SDS011;62630;55.874;37.516;2023-03-20T01:05:41;10.70;;;4.35;;
74259;SDS011;62630;55.874;37.516;2023-03-20T01:08:10;8.63;;;4.03;;
74259;SDS011;62630;55.874;37.516;2023-03-20T01:10:37;10.15;;;4.43;;
74259;SDS011;62630;55.874;37.516;2023-03-20T01:13:05;11.15;;;4.28;;
74259;SDS011;62630;55.874;37.516;2023-03-20T01:15:39;18.83;;;4.55;;
74259;SDS011;62630;55.874;37.516;2023-03-20T01:18:05;10.32;;;3.80;;
74259;SDS011;62630;55.874;37.516;2023-03-20T01:20:32;10.70;;;4.53;;
74259;SDS011;62630;55.874;37.516;2023-03-20T01:22:58;12.30;;;3.85;;
74259;SDS011;62630;55.874;37.516;2023-03-20T01:25:24;7.07;;;3.90;;
74259;SDS011;62630;55.874;37.516;2023-03-20T01:27:50;11.55;;;4.40;;
74259;SDS011;62630;55.874;37.516;2023-03-20T01:30:26;11.98;;;4.07;;
74259;SDS011;62630;55.874;37.516;2023-03-20T01:32:53;8.90;;;4.03;;
74259;SDS011;62630;55.874;37.516;2023-03-20T01:35:20;7.88;;;4.07;;
74259;SDS011;62630;55.874;37.516;2023-03-20T01:37:48;7.82;;;3.58;;
74259;SDS011;62630;55.874;37.516;2023-03-20T01:42:43;9.15;;;4.10;;
74259;SDS011;62630;55.874;37.516;2023-03-20T01:45:12;12.50;;;3.60;;
74259;SDS011;62630;55.874;37.516;2023-03-20T01:52:36;6.22;;;3.35;;
74259;SDS011;62630;55.874;37.516;2023-03-20T01:55:02;9.93;;;3.78;;
74259;SDS011;62630;55.874;37.516;2023-03-20T01:57:28;12.90;;;4.18;;
74259;SDS011;62630;55.874;37.516;2023-03-20T02:00:00;7.90;;;3.42;;
74259;SDS011;62630;55.874;37.516;2023-03-20T02:02:30;6.97;;;3.72;;
74259;SDS011;62630;55.874;37.516;2023-03-20T02:04:58;8.52;;;3.28;;
74259;SDS011;62630;55.874;37.516;2023-03-20T02:07:27;7.65;;;3.45;;
74259;SDS011;62630;55.874;37.516;2023-03-20T02:09:53;6.22;;;3.83;;
74259;SDS011;62630;55.874;37.516;2023-03-20T02:12:19;11.98;;;3.83;;
74259;SDS011;62630;55.874;37.516;2023-03-20T02:14:46;6.28;;;3.67;;
74259;SDS011;62630;55.874;37.516;2023-03-20T02:17:12;7.40;;;3.95;;
74259;SDS011;62630;55.874;37.516;2023-03-20T02:27:56;6.60;;;2.97;;
74259;SDS011;62630;55.874;37.516;2023-03-20T02:30:46;9.57;;;3.83;;
74259;SDS011;62630;55.874;37.516;2023-03-20T02:42:03;7.75;;;3.53;;
74259;SDS011;62630;55.874;37.516;2023-03-20T02:44:37;9.23;;;3.53;;
74259;SDS011;62630;55.874;37.516;2023-03-20T02:47:15;7.68;;;3.15;;
74259;SDS011;62630;55.874;37.516;2023-03-20T02:49:51;5.88;;;3.30;;
74259;SDS011;62630;55.874;37.516;2023-03-20T03:01:00;5.68;;;3.17;;
74259;SDS011;62630;55.874;37.516;2023-03-20T03:03:35;4.72;;;2.65;;
74259;SDS011;62630;55.874;37.516;2023-03-20T03:06:17;7.28;;;3.35;;
74259;SDS011;62630;55.874;37.516;2023-03-20T03:08:57;5.30;;;3.03;;
74259;SDS011;62630;55.874;37.516;2023-03-20T03:11:27;4.30;;;2.70;;
74259;SDS011;62630;55.874;37.516;2023-03-20T03:13:54;5.35;;;2.63;;
74259;SDS011;62630;55.874;37.516;2023-03-20T03:16:28;6.07;;;2.90;;
74259;SDS011;62630;55.874;37.516;2023-03-20T03:19:07;8.85;;;2.70;;
74259;SDS011;62630;55.874;37.516;2023-03-20T03:21:38;6.93;;;3.10;;
74259;SDS011;62630;55.874;37.516;2023-03-20T03:24:05;6.82;;;2.60;;
74259;SDS011;62630;55.874;37.516;2023-03-20T03:26:43;5.97;;;3.20;;
74259;SDS011;62630;55.874;37.516;2023-03-20T03:29:13;4.93;;;2.72;;
74259;SDS011;62630;55.874;37.516;2023-03-20T03:31:42;4.10;;;2.65;;
74259;SDS011;62630;55.874;37.516;2023-03-20T03:34:13;7.68;;;2.83;;
74259;SDS011;62630;55.874;37.516;2023-03-20T03:47:36;7.05;;;2.75;;
74259;SDS011;62630;55.874;37.516;2023-03-20T03:50:06;5.32;;;2.75;;
74259;SDS011;62630;55.874;37.516;2023-03-20T03:52:38;5.28;;;2.70;;
74259;SDS011;62630;55.874;37.516;2023-03-20T03:55:07;7.10;;;2.67;;
74259;SDS011;62630;55.874;37.516;2023-03-20T03:57:59;8.13;;;2.95;;
74259;SDS011;62630;55.874;37.516;2023-03-20T04:00:26;5.70;;;2.80;;
74259;SDS011;62630;55.874;37.516;2023-03-20T04:02:54;4.85;;;2.47;;
74259;SDS011;62630;55.874;37.516;2023-03-20T04:05:22;5.10;;;2.28;;
74259;SDS011;62630;55.874;37.516;2023-03-20T04:08:00;7.53;;;2.30;;
74259;SDS011;62630;55.874;37.516;2023-03-20T04:10:30;7.47;;;3.10;;
74259;SDS011;62630;55.874;37.516;2023-03-20T04:12:55;5.40;;;3.33;;
74259;SDS011;62630;55.874;37.516;2023-03-20T04:15:21;4.90;;;2.78;;
74259;SDS011;62630;55.874;37.516;2023-03-20T04:17:47;5.07;;;2.60;;
74259;SDS011;62630;55.874;37.516;2023-03-20T04:20:13;6.63;;;2.55;;
74259;SDS011;62630;55.874;37.516;2023-03-20T04:22:40;3.92;;;2.40;;
74259;SDS011;62630;55.874;37.516;2023-03-20T04:25:06;5.90;;;2.72;;
74259;SDS011;62630;55.874;37.516;2023-03-20T04:27:33;6.45;;;2.92;;
74259;SDS011;62630;55.874;37.516;2023-03-20T04:29:59;8.65;;;3.28;;
74259;SDS011;62630;55.874;37.516;2023-03-20T04:32:27;9.65;;;3.35;;
74259;SDS011;62630;55.874;37.516;2023-03-20T04:34:53;7.45;;;2.97;;
74259;SDS011;62630;55.874;37.516;2023-03-20T04:37:18;7.20;;;2.92;;
74259;SDS011;62630;55.874;37.516;2023-03-20T04:39:44;7.45;;;3.58;;
74259;SDS011;62630;55.874;37.516;2023-03-20T04:42:10;8.07;;;3.33;;
74259;SDS011;62630;55.874;37.516;2023-03-20T04:44:36;8.48;;;3.65;;
74259;SDS011;62630;55.874;37.516;2023-03-20T04:47:01;7.68;;;3.38;;
74259;SDS011;62630;55.874;37.516;2023-03-20T04:49:27;11.23;;;3.17;;
74259;SDS011;62630;55.874;37.516;2023-03-20T04:51:53;10.40;;;2.95;;
74259;SDS011;62630;55.874;37.516;2023-03-20T04:54:19;12.25;;;3.75;;
74259;SDS011;62630;55.874;37.516;2023-03-20T04:56:45;9.23;;;3.13;;
74259;SDS011;62630;55.874;37.516;2023-03-20T04:59:10;9.90;;;3.63;;
74259;SDS011;62630;55.874;37.516;2023-03-20T05:01:36;16.00;;;3.72;;
74259;SDS011;62630;55.874;37.516;2023-03-20T05:04:02;11.70;;;3.42;;
74259;SDS011;62630;55.874;37.516;2023-03-20T05:06:29;7.55;;;3.15;;
74259;SDS011;62630;55.874;37.516;2023-03-20T05:08:56;12.93;;;3.95;;
74259;SDS011;62630;55.874;37.516;2023-03-20T05:11:26;9.50;;;3.00;;
74259;SDS011;62630;55.874;37.516;2023-03-20T05:13:53;6.75;;;3.30;;
74259;SDS011;62630;55.874;37.516;2023-03-20T05:16:18;9.82;;;3.03;;
74259;SDS011;62630;55.874;37.516;2023-03-20T05:18:44;6.15;;;2.95;;
74259;SDS011;62630;55.874;37.516;2023-03-20T05:21:09;7.18;;;2.92;;
74259;SDS011;62630;55.874;37.516;2023-03-20T05:23:35;8.60;;;2.70;;
74259;SDS011;62630;55.874;37.516;2023-03-20T05:26:01;10.27;;;2.97;;
74259;SDS011;62630;55.874;37.516;2023-03-20T05:28:27;5.05;;;3.08;;
74259;SDS011;62630;55.874;37.516;2023-03-20T05:30:53;9.82;;;3.33;;
74259;SDS011;62630;55.874;37.516;2023-03-20T05:33:19;10.73;;;3.08;;
74259;SDS011;62630;55.874;37.516;2023-03-20T05:35:45;7.38;;;2.67;;
74259;SDS011;62630;55.874;37.516;2023-03-20T05:38:10;13.48;;;2.67;;
74259;SDS011;62630;55.874;37.516;2023-03-20T05:40:36;11.20;;;2.78;;
74259;SDS011;62630;55.874;37.516;2023-03-20T05:43:01;11.82;;;3.33;;
74259;SDS011;62630;55.874;37.516;2023-03-20T05:45:27;7.47;;;3.25;;
74259;SDS011;62630;55.874;37.516;2023-03-20T05:47:53;7.70;;;3.13;;
74259;SDS011;62630;55.874;37.516;2023-03-20T05:50:18;19.10;;;4.25;;
74259;SDS011;62630;55.874;37.516;2023-03-20T05:52:47;8.13;;;2.42;;
74259;SDS011;62630;55.874;37.516;2023-03-20T05:55:13;5.55;;;2.85;;
74259;SDS011;62630;55.874;37.516;2023-03-20T05:57:42;8.65;;;2.72;;
74259;SDS011;62630;55.874;37.516;2023-03-20T06:00:08;6.63;;;2.67;;
74259;SDS011;62630;55.874;37.516;2023-03-20T06:02:37;11.55;;;3.15;;
74259;SDS011;62630;55.874;37.516;2023-03-20T06:05:02;8.45;;;2.42;;
74259;SDS011;62630;55.874;37.516;2023-03-20T06:07:28;3.90;;;2.40;;
74259;SDS011;62630;55.874;37.516;2023-03-20T06:09:54;8.55;;;3.13;;
74259;SDS011;62630;55.874;37.516;2023-03-20T06:12:20;5.22;;;2.90;;
74259;SDS011;62630;55.874;37.516;2023-03-20T06:14:46;5.63;;;3.05;;
74259;SDS011;62630;55.874;37.516;2023-03-20T06:17:11;5.93;;;2.95;;
74259;SDS011;62630;55.874;37.516;2023-03-20T06:19:38;12.75;;;3.05;;
74259;SDS011;62630;55.874;37.516;2023-03-20T06:22:03;15.73;;;3.58;;
74259;SDS011;62630;55.874;37.516;2023-03-20T06:24:29;12.48;;;2.50;;
74259;SDS011;62630;55.874;37.516;2023-03-20T06:26:55;12.13;;;3.13;;
74259;SDS011;62630;55.874;37.516;2023-03-20T06:29:20;7.38;;;2.42;;
74259;SDS011;62630;55.874;37.516;2023-03-20T06:31:46;5.95;;;3.08;;
74259;SDS011;62630;55.874;37.516;2023-03-20T06:34:12;7.18;;;3.28;;
74259;SDS011;62630;55.874;37.516;2023-03-20T06:36:38;7.15;;;2.65;;
74259;SDS011;62630;55.874;37.516;2023-03-20T06:39:03;8.98;;;2.88;;
74259;SDS011;62630;55.874;37.516;2023-03-20T06:41:29;10.60;;;2.72;;
74259;SDS011;62630;55.874;37.516;2023-03-20T06:43:54;6.55;;;3.22;;
74259;SDS011;62630;55.874;37.516;2023-03-20T06:46:20;5.95;;;3.22;;
74259;SDS011;62630;55.874;37.516;2023-03-20T06:48:47;5.72;;;2.85;;
74259;SDS011;62630;55.874;37.516;2023-03-20T06:51:13;9.07;;;2.78;;
74259;SDS011;62630;55.874;37.516;2023-03-20T06:53:39;7.40;;;3.05;;
74259;SDS011;62630;55.874;37.516;2023-03-20T06:56:08;8.65;;;3.25;;
74259;SDS011;62630;55.874;37.516;2023-03-20T06:58:34;8.48;;;2.28;;
74259;SDS011;62630;55.874;37.516;2023-03-20T07:01:00;11.55;;;3.33;;
74259;SDS011;62630;55.874;37.516;2023-03-20T07:03:26;19.00;;;3.70;;
74259;SDS011;62630;55.874;37.516;2023-03-20T07:05:52;7.32;;;3.10;;
74259;SDS011;62630;55.874;37.516;2023-03-20T07:08:18;3.67;;;2.83;;
74259;SDS011;62630;55.874;37.516;2023-03-20T07:10:43;12.88;;;3.30;;
74259;SDS011;62630;55.874;37.516;2023-03-20T07:13:09;11.88;;;4.20;;
74259;SDS011;62630;55.874;37.516;2023-03-20T07:15:36;4.53;;;2.53;;
74259;SDS011;62630;55.874;37.516;2023-03-20T07:18:01;7.18;;;2.60;;
74259;SDS011;62630;55.874;37.516;2023-03-20T07:20:27;4.60;;;2.63;;
74259;SDS011;62630;55.874;37.516;2023-03-20T07:22:52;11.73;;;2.63;;
74259;SDS011;62630;55.874;37.516;2023-03-20T07:25:19;5.53;;;2.88;;
74259;SDS011;62630;55.874;37.516;2023-03-20T07:27:45;15.05;;;3.60;;
74259;SDS011;62630;55.874;37.516;2023-03-20T07:30:15;6.95;;;3.60;;
74259;SDS011;62630;55.874;37.516;2023-03-20T07:32:42;6.35;;;2.78;;
74259;SDS011;62630;55.874;37.516;2023-03-20T07:35:08;7.75;;;2.42;;
74259;SDS011;62630;55.874;37.516;2023-03-20T07:37:34;8.57;;;2.70;;
74259;SDS011;62630;55.874;37.516;2023-03-20T07:39:59;7.15;;;2.58;;
74259;SDS011;62630;55.874;37.516;2023-03-20T07:42:25;7.82;;;2.55;;
74259;SDS011;62630;55.874;37.516;2023-03-20T07:44:51;6.68;;;2.83;;
74259;SDS011;62630;55.874;37.516;2023-03-20T07:47:16;9.85;;;3.83;;
74259;SDS011;62630;55.874;37.516;2023-03-20T07:49:42;8.40;;;2.88;;
74259;SDS011;62630;55.874;37.516;2023-03-20T07:52:07;15.27;;;3.63;;
74259;SDS011;62630;55.874;37.516;2023-03-20T07:54:33;12.18;;;3.33;;
74259;SDS011;62630;55.874;37.516;2023-03-20T07:57:00;4.90;;;2.83;;
74259;SDS011;62630;55.874;37.516;2023-03-20T07:59:27;8.13;;;3.08;;
74259;SDS011;62630;55.874;37.516;2023-03-20T08:01:53;7.82;;;2.97;;
74259;SDS011;62630;55.874;37.516;2023-03-20T08:04:18;7.95;;;2.85;;
74259;SDS011;62630;55.874;37.516;2023-03-20T08:06:51;8.88;;;2.90;;
74259;SDS011;62630;55.874;37.516;2023-03-20T08:09:22;11.90;;;3.72;;
74259;SDS011;62630;55.874;37.516;2023-03-20T08:11:47;8.45;;;3.78;;
74259;SDS011;62630;55.874;37.516;2023-03-20T08:14:13;12.57;;;3.38;;
74259;SDS011;62630;55.874;37.516;2023-03-20T08:16:38;8.57;;;3.40;;
74259;SDS011;62630;55.874;37.516;2023-03-20T08:19:04;8.07;;;3.53;;
74259;SDS011;62630;55.874;37.516;2023-03-20T08:21:31;11.65;;;3.97;;
74259;SDS011;62630;55.874;37.516;2023-03-20T08:23:57;6.18;;;3.28;;
74259;SDS011;62630;55.874;37.516;2023-03-20T08:26:23;6.68;;;3.00;;
74259;SDS011;62630;55.874;37.516;2023-03-20T08:28:50;10.25;;;3.50;;
74259;SDS011;62630;55.874;37.516;2023-03-20T08:31:16;8.70;;;3.05;;
74259;SDS011;62630;55.874;37.516;2023-03-20T08:33:42;11.52;;;3.33;;
74259;SDS011;62630;55.874;37.516;2023-03-20T08:36:09;9.38;;;2.83;;
74259;SDS011;62630;55.874;37.516;2023-03-20T08:38:35;10.93;;;3.70;;
74259;SDS011;62630;55.874;37.516;2023-03-20T08:41:01;26.05;;;5.22;;
74259;SDS011;62630;55.874;37.516;2023-03-20T08:43:27;10.05;;;4.25;;
74259;SDS011;62630;55.874;37.516;2023-03-20T08:45:53;7.63;;;3.80;;
74259;SDS011;62630;55.874;37.516;2023-03-20T08:48:19;9.40;;;3.70;;
74259;SDS011;62630;55.874;37.516;2023-03-20T08:50:45;12.30;;;4.32;;
74259;SDS011;62630;55.874;37.516;2023-03-20T08:53:10;13.32;;;4.50;;
74259;SDS011;62630;55.874;37.516;2023-03-20T08:55:36;11.02;;;4.05;;
74259;SDS011;62630;55.874;37.516;2023-03-20T08:58:02;15.13;;;4.07;;
74259;SDS011;62630;55.874;37.516;2023-03-20T09:00:28;15.60;;;5.18;;
74259;SDS011;62630;55.874;37.516;2023-03-20T09:02:53;8.32;;;4.45;;
74259;SDS011;62630;55.874;37.516;2023-03-20T09:05:19;14.05;;;4.30;;
74259;SDS011;62630;55.874;37.516;2023-03-20T09:07:44;16.40;;;4.10;;
74259;SDS011;62630;55.874;37.516;2023-03-20T09:10:10;11.88;;;3.58;;
74259;SDS011;62630;55.874;37.516;2023-03-20T09:12:37;12.18;;;3.70;;
74259;SDS011;62630;55.874;37.516;2023-03-20T09:15:03;11.35;;;3.92;;
74259;SDS011;62630;55.874;37.516;2023-03-20T09:17:30;10.55;;;3.40;;
74259;SDS011;62630;55.874;37.516;2023-03-20T09:19:56;9.35;;;3.38;;
74259;SDS011;62630;55.874;37.516;2023-03-20T09:22:22;9.52;;;3.08;;
74259;SDS011;62630;55.874;37.516;2023-03-20T09:24:48;13.20;;;3.58;;
74259;SDS011;62630;55.874;37.516;2023-03-20T09:27:13;6.28;;;3.45;;
74259;SDS011;62630;55.874;37.516;2023-03-20T09:29:39;17.77;;;2.97;;
74259;SDS011;62630;55.874;37.516;2023-03-20T09:32:06;20.45;;;4.38;;
74259;SDS011;62630;55.874;37.516;2023-03-20T09:34:34;5.78;;;3.13;;
74259;SDS011;62630;55.874;37.516;2023-03-20T09:37:00;9.60;;;2.03;;
74259;SDS011;62630;55.874;37.516;2023-03-20T09:39:27;5.80;;;2.50;;
74259;SDS011;62630;55.874;37.516;2023-03-20T09:41:53;10.23;;;2.55;;
74259;SDS011;62630;55.874;37.516;2023-03-20T09:47:39;3.97;;;2.28;;
74259;SDS011;62630;55.874;37.516;2023-03-20T09:53:10;8.38;;;3.00;;
74259;SDS011;62630;55.874;37.516;2023-03-20T09:55:48;10.27;;;2.60;;
74259;SDS011;62630;55.874;37.516;2023-03-20T09:58:20;5.53;;;3.15;;
74259;SDS011;62630;55.874;37.516;2023-03-20T10:00:49;8.00;;;3.70;;
74259;SDS011;62630;55.874;37.516;2023-03-20T10:03:24;8.95;;;2.90;;
74259;SDS011;62630;55.874;37.516;2023-03-20T10:05:57;14.05;;;3.10;;
74259;SDS011;62630;55.874;37.516;2023-03-20T10:08:29;7.47;;;3.05;;
74259;SDS011;62630;55.874;37.516;2023-03-20T10:11:03;11.05;;;3.00;;
74259;SDS011;62630;55.874;37.516;2023-03-20T10:19:20;10.48;;;3.25;;
74259;SDS011;62630;55.874;37.516;2023-03-20T10:22:05;11.00;;;3.13;;
74259;SDS011;62630;55.874;37.516;2023-03-20T10:25:02;6.78;;;2.85;;
74259;SDS011;62630;55.874;37.516;2023-03-20T10:27:43;5.68;;;2.60;;
74259;SDS011;62630;55.874;37.516;2023-03-20T10:38:30;5.18;;;3.13;;
74259;SDS011;62630;55.874;37.516;2023-03-20T10:41:11;8.13;;;3.45;;
74259;SDS011;62630;55.874;37.516;2023-03-20T10:43:42;6.38;;;2.90;;
74259;SDS011;62630;55.874;37.516;2023-03-20T10:46:15;11.07;;;2.83;;
74259;SDS011;62630;55.874;37.516;2023-03-20T10:49:06;10.52;;;2.90;;
74259;SDS011;62630;55.874;37.516;2023-03-20T10:51:39;8.05;;;2.97;;
74259;SDS011;62630;55.874;37.516;2023-03-20T10:54:32;6.07;;;2.63;;
74259;SDS011;62630;55.874;37.516;2023-03-20T10:57:01;10.02;;;2.60;;
74259;SDS011;62630;55.874;37.516;2023-03-20T10:59:47;7.78;;;2.75;;
74259;SDS011;62630;55.874;37.516;2023-03-20T11:02:19;5.82;;;3.05;;
74259;SDS011;62630;55.874;37.516;2023-03-20T11:04:47;3.35;;;2.45;;
74259;SDS011;62630;55.874;37.516;2023-03-20T11:07:26;5.32;;;2.17;;
74259;SDS011;62630;55.874;37.516;2023-03-20T11:12:48;5.60;;;2.78;;
74259;SDS011;62630;55.874;37.516;2023-03-20T11:15:32;6.07;;;2.35;;
74259;SDS011;62630;55.874;37.516;2023-03-20T11:17:59;4.93;;;2.50;;
74259;SDS011;62630;55.874;37.516;2023-03-20T11:20:35;4.00;;;2.33;;
74259;SDS011;62630;55.874;37.516;2023-03-20T11:23:03;5.43;;;2.55;;
74259;SDS011;62630;55.874;37.516;2023-03-20T11:25:36;8.07;;;2.90;;
74259;SDS011;62630;55.874;37.516;2023-03-20T11:30:56;6.18;;;3.03;;
74259;SDS011;62630;55.874;37.516;2023-03-20T11:33:38;8.00;;;2.28;;
74259;SDS011;62630;55.874;37.516;2023-03-20T11:36:21;4.43;;;2.35;;
74259;SDS011;62630;55.874;37.516;2023-03-20T11:38:47;4.82;;;2.65;;
74259;SDS011;62630;55.874;37.516;2023-03-20T11:41:19;6.20;;;2.33;;
74259;SDS011;62630;55.874;37.516;2023-03-20T11:43:48;4.30;;;2.40;;
74259;SDS011;62630;55.874;37.516;2023-03-20T11:46:14;7.18;;;2.42;;
74259;SDS011;62630;55.874;37.516;2023-03-20T11:48:41;2.65;;;1.95;;
74259;SDS011;62630;55.874;37.516;2023-03-20T11:51:15;10.30;;;2.20;;
74259;SDS011;62630;55.874;37.516;2023-03-20T11:56:13;5.57;;;2.30;;
74259;SDS011;62630;55.874;37.516;2023-03-20T11:58:54;9.85;;;3.13;;
74259;SDS011;62630;55.874;37.516;2023-03-20T12:01:21;8.48;;;2.88;;
74259;SDS011;62630;55.874;37.516;2023-03-20T12:06:38;5.32;;;2.22;;
74259;SDS011;62630;55.874;37.516;2023-03-20T12:09:34;12.32;;;3.05;;
74259;SDS011;62630;55.874;37.516;2023-03-20T12:21:26;6.68;;;2.75;;
74259;SDS011;62630;55.874;37.516;2023-03-20T12:36:41;13.95;;;3.80;;
74259;SDS011;62630;55.874;37.516;2023-03-20T12:39:11;5.30;;;2.40;;
74259;SDS011;62630;55.874;37.516;2023-03-20T12:44:54;6.47;;;1.98;;
74259;SDS011;62630;55.874;37.516;2023-03-20T12:50:22;4.70;;;2.40;;
74259;SDS011;62630;55.874;37.516;2023-03-20T12:55:34;5.25;;;2.83;;
74259;SDS011;62630;55.874;37.516;2023-03-20T13:12:06;9.85;;;2.80;;
74259;SDS011;62630;55.874;37.516;2023-03-20T13:14:40;3.65;;;2.22;;
74259;SDS011;62630;55.874;37.516;2023-03-20T13:17:29;5.78;;;2.30;;
74259;SDS011;62630;55.874;37.516;2023-03-20T13:25:32;5.28;;;2.20;;
74259;SDS011;62630;55.874;37.516;2023-03-20T13:42:17;4.57;;;2.35;;
74259;SDS011;62630;55.874;37.516;2023-03-20T13:44:46;6.22;;;2.90;;
74259;SDS011;62630;55.874;37.516;2023-03-20T13:47:18;5.80;;;2.80;;
74259;SDS011;62630;55.874;37.516;2023-03-20T13:52:18;11.15;;;2.40;;
74259;SDS011;62630;55.874;37.516;2023-03-20T14:03:02;10.52;;;3.40;;
74259;SDS011;62630;55.874;37.516;2023-03-20T14:05:37;6.90;;;2.50;;
74259;SDS011;62630;55.874;37.516;2023-03-20T14:08:21;6.65;;;2.45;;
74259;SDS011;62630;55.874;37.516;2023-03-20T14:11:06;9.43;;;2.97;;
74259;SDS011;62630;55.874;37.516;2023-03-20T14:13:58;7.82;;;2.65;;
74259;SDS011;62630;55.874;37.516;2023-03-20T14:16:30;10.13;;;2.50;;
74259;SDS011;62630;55.874;37.516;2023-03-20T14:19:07;9.23;;;2.50;;
74259;SDS011;62630;55.874;37.516;2023-03-20T14:21:45;2.58;;;1.98;;
74259;SDS011;62630;55.874;37.516;2023-03-20T14:24:13;4.57;;;2.63;;
74259;SDS011;62630;55.874;37.516;2023-03-20T14:26:41;8.02;;;3.17;;
74259;SDS011;62630;55.874;37.516;2023-03-20T14:31:36;4.22;;;2.55;;
74259;SDS011;62630;55.874;37.516;2023-03-20T14:47:00;8.35;;;3.67;;
74259;SDS011;62630;55.874;37.516;2023-03-20T14:57:42;4.50;;;3.03;;
74259;SDS011;62630;55.874;37.516;2023-03-20T15:00:18;5.85;;;2.90;;
74259;SDS011;62630;55.874;37.516;2023-03-20T15:03:07;6.90;;;2.70;;
74259;SDS011;62630;55.874;37.516;2023-03-20T15:05:36;7.43;;;2.63;;
74259;SDS011;62630;55.874;37.516;2023-03-20T15:08:04;6.40;;;2.40;;
74259;SDS011;62630;55.874;37.516;2023-03-20T15:10:33;6.15;;;2.80;;
74259;SDS011;62630;55.874;37.516;2023-03-20T15:13:03;4.63;;;2.55;;
74259;SDS011;62630;55.874;37.516;2023-03-20T15:15:30;15.38;;;3.10;;
74259;SDS011;62630;55.874;37.516;2023-03-20T15:18:03;8.05;;;2.88;;
74259;SDS011;62630;55.874;37.516;2023-03-20T15:20:34;6.40;;;2.38;;
74259;SDS011;62630;55.874;37.516;2023-03-20T15:23:01;11.50;;;3.22;;
74259;SDS011;62630;55.874;37.516;2023-03-20T15:25:36;9.02;;;2.97;;
74259;SDS011;62630;55.874;37.516;2023-03-20T15:28:14;9.38;;;3.13;;
74259;SDS011;62630;55.874;37.516;2023-03-20T15:30:43;11.43;;;4.28;;
74259;SDS011;62630;55.874;37.516;2023-03-20T15:33:24;8.07;;;3.42;;
74259;SDS011;62630;55.874;37.516;2023-03-20T15:35:53;9.70;;;3.40;;
74259;SDS011;62630;55.874;37.516;2023-03-20T15:38:21;9.25;;;4.28;;
74259;SDS011;62630;55.874;37.516;2023-03-20T15:40:53;7.47;;;3.55;;
74259;SDS011;62630;55.874;37.516;2023-03-20T15:43:23;12.05;;;3.60;;
74259;SDS011;62630;55.874;37.516;2023-03-20T15:45:50;7.55;;;3.30;;
74259;SDS011;62630;55.874;37.516;2023-03-20T15:48:20;6.63;;;3.55;;
74259;SDS011;62630;55.874;37.516;2023-03-20T15:50:49;7.47;;;3.78;;
74259;SDS011;62630;55.874;37.516;2023-03-20T15:53:25;9.40;;;4.20;;
74259;SDS011;62630;55.874;37.516;2023-03-20T15:56:02;10.50;;;4.47;;
74259;SDS011;62630;55.874;37.516;2023-03-20T15:58:28;8.02;;;3.70;;
74259;SDS011;62630;55.874;37.516;2023-03-20T16:00:56;13.57;;;4.35;;
74259;SDS011;62630;55.874;37.516;2023-03-20T16:03:25;10.43;;;4.20;;
74259;SDS011;62630;55.874;37.516;2023-03-20T16:05:52;15.65;;;5.57;;
74259;SDS011;62630;55.874;37.516;2023-03-20T16:08:29;9.27;;;3.55;;
74259;SDS011;62630;55.874;37.516;2023-03-20T16:10:57;12.10;;;3.63;;
74259;SDS011;62630;55.874;37.516;2023-03-20T16:13:25;10.73;;;4.07;;
74259;SDS011;62630;55.874;37.516;2023-03-20T16:15:55;10.40;;;3.70;;
74259;SDS011;62630;55.874;37.516;2023-03-20T16:18:22;6.70;;;4.00;;
74259;SDS011;62630;55.874;37.516;2023-03-20T16:20:57;14.75;;;3.80;;
74259;SDS011;62630;55.874;37.516;2023-03-20T16:23:30;15.93;;;4.07;;
74259;SDS011;62630;55.874;37.516;2023-03-20T16:26:02;10.07;;;3.90;;
74259;SDS011;62630;55.874;37.516;2023-03-20T16:28:30;9.57;;;4.45;;
74259;SDS011;62630;55.874;37.516;2023-03-20T16:31:10;10.77;;;4.22;;
74259;SDS011;62630;55.874;37.516;2023-03-20T16:33:40;9.32;;;4.45;;
74259;SDS011;62630;55.874;37.516;2023-03-20T16:36:07;11.95;;;4.53;;
74259;SDS011;62630;55.874;37.516;2023-03-20T16:38:34;11.30;;;3.42;;
74259;SDS011;62630;55.874;37.516;2023-03-20T16:43:39;9.32;;;3.95;;
74259;SDS011;62630;55.874;37.516;2023-03-20T16:46:06;8.98;;;3.20;;
74259;SDS011;62630;55.874;37.516;2023-03-20T16:48:32;11.15;;;3.22;;
74259;SDS011;62630;55.874;37.516;2023-03-20T16:51:00;5.70;;;2.88;;
74259;SDS011;62630;55.874;37.516;2023-03-20T16:53:47;8.55;;;3.17;;
74259;SDS011;62630;55.874;37.516;2023-03-20T16:56:27;18.30;;;3.80;;
74259;SDS011;62630;55.874;37.516;2023-03-20T16:59:05;6.93;;;3.17;;
74259;SDS011;62630;55.874;37.516;2023-03-20T17:01:34;7.43;;;3.20;;
74259;SDS011;62630;55.874;37.516;2023-03-20T17:09:19;9.63;;;4.10;;
74259;SDS011;62630;55.874;37.516;2023-03-20T17:12:01;8.98;;;3.00;;
74259;SDS011;62630;55.874;37.516;2023-03-20T17:14:30;12.88;;;3.78;;
74259;SDS011;62630;55.874;37.516;2023-03-20T17:16:56;9.85;;;3.33;;
74259;SDS011;62630;55.874;37.516;2023-03-20T17:19:22;6.85;;;3.70;;
74259;SDS011;62630;55.874;37.516;2023-03-20T17:21:48;7.22;;;3.15;;
74259;SDS011;62630;55.874;37.516;2023-03-20T17:24:16;8.52;;;3.83;;
74259;SDS011;62630;55.874;37.516;2023-03-20T17:29:09;6.20;;;3.28;;
74259;SDS011;62630;55.874;37.516;2023-03-20T17:31:36;10.45;;;6.13;;
74259;SDS011;62630;55.874;37.516;2023-03-20T17:34:03;8.07;;;4.18;;
74259;SDS011;62630;55.874;37.516;2023-03-20T17:36:29;10.55;;;4.20;;
74259;SDS011;62630;55.874;37.516;2023-03-20T17:38:56;9.27;;;3.25;;
74259;SDS011;62630;55.874;37.516;2023-03-20T17:41:23;10.60;;;4.43;;
74259;SDS011;62630;55.874;37.516;2023-03-20T17:43:50;6.68;;;3.75;;
74259;SDS011;62630;55.874;37.516;2023-03-20T17:46:26;6.07;;;3.53;;
74259;SDS011;62630;55.874;37.516;2023-03-20T17:49:00;11.93;;;3.28;;
74259;SDS011;62630;55.874;37.516;2023-03-20T17:51:28;7.15;;;3.20;;
74259;SDS011;62630;55.874;37.516;2023-03-20T17:53:54;5.80;;;2.70;;